AirNav   Pilot Hours Calculator
 
 1046 users online  

FL91 Jackson South Medical Center Heliport
Miami, Florida, USA

GOING TO MIAMI?


FAA INFORMATION EFFECTIVE 02 JANUARY 2020

Location

FAA Identifier: FL91
Lat/Long: 25-37-47.8200N 080-20-39.1400W
25-37.797000N 080-20.652333W
25.6299500,-80.3442056
(estimated)
Elevation: 42 ft. / 13 m
From city: 12 miles SW of MIAMI, FL
Time zone: UTC -5 (UTC -4 during Daylight Saving Time)
Zip code: 33157

Heliport Operations

Heliport use: Private use. Permission required prior to landing
Activation date: 04/2015
Control tower: no
ARTCC: MIAMI CENTER
FSS: MIAMI FLIGHT SERVICE STATION
Attendance: CONTINUOUS
Wind indicator: yes
Segmented circle: no

Heliport Communications

WX ASOS at TMB (5 nm W): PHONE 305-235-1332
WX ASOS at MIA (10 nm N): PHONE 305-870-0235
WX AWOS-3 at X51 (14 nm SW): 118.375 ((305) 247-2791)
WX ASOS at OPF (17 nm N): 125.9 (305-681-4063)

Nearby radio navigation aids

VOR radial/distance  VOR name  Freq  Var
DHPr183/10.2DOLPHIN VORTAC113.9004W
VKZr239/12.6VIRGINIA KEY VOR/DME117.1004W
FLLr206/28.3FORT LAUDERDALE VOR/DME114.4006W

Heliport Services

Runway Information

Helipad H1

Dimensions: 48 x 48 ft. / 15 x 15 m
Surface: ROOF/TOP
Runway edge lights: PERI
Operational restrictions: MAXIMUM GROSS WEIGHT: 12,000 POUNDS MAXIMUM ROTOR DIAMETER: 48 FEET
Traffic pattern: leftleft

Heliport Ownership and Management from official FAA records

Ownership: Privately-owned
Owner: JACKSON SOUTH MEDICAL CENTER
9333 SW 152ND STREET
MIAMI, FL 33157
Phone 305-256-5104
Manager: KAREN P. BAEZ
9333 SW 152ND STREET
MIAMI, FL 33157
Phone (305) 256-4059

Additional Remarks

A52-H1 EGRESS STAIRSHAFT LIGHTED CELL PHONE TOWER SOUTHEAST APPROX. 100 YDS
ROOF-TOP HELIPAD
RED GUIDE LIGHTS AT CORNERS, LETTER "H" AT CENTER OF HELIPAD.
MEDICAL AIR TRANSPORT USE
HELIPAD MAX GWT 12,000 LBS.
HELIPAD MAX ROTOR DIAM 48 FT.
OBST LIGHTED CELL TWR SE APRX 100 YDS.
FOR CD CTC MIAMI APCH AT 305-869-5432.

Instrument Procedures

There are no published instrument procedures at FL91.

Some nearby airports with instrument procedures:

KTMB - Miami Executive Airport (5 nm W)
KHST - Homestead Air Reserve Base (9 nm S)
KMIA - Miami International Airport (10 nm N)
X51 - Miami Homestead General Aviation Airport (14 nm SW)
KOPF - Miami-Opa Locka Executive Airport (17 nm N)
07FA - Ocean Reef Club Airport (19 nm S)
 
Loc | Ops | Rwys | IFR | FBO | Links
Com | Nav | Svcs | Stats | Notes
Aerial photo
No photo
 
Airport distance calculator
Flying to Jackson South Medical Center Heliport? Find the distance to fly.

From to FL91

Sunrise and sunset
Times for 21-Jan-2020
 Local
(UTC-5)
 Zulu
(UTC)
Morning civil twilight06:4511:45
Sunrise07:1012:10
Sunset17:5622:56
Evening civil twilight18:2023:20

Current date and time
Zulu (UTC)  22-Jan-2020 02:55:05
Local (UTC-5)  21-Jan-2020 21:55:05
 
METAR
KTMB 
5nm W 
220153Z 34013KT 10SM CLR 11/02 A3011 RMK AO2 SLP195 T01110017
KMIA 
9nm N 
220153Z 32013G27KT 10SM CLR 12/01 A3012 RMK AO2 PK WND 33027/0146 SLP198 T01220006
KHST 
10nm S 
220157Z AUTO 32016KT 10SM CLR 11/01 A3009 RMK AO2 SLPNO T01140005 $
KOPF 
18nm N 
220153Z 34013G24KT 10SM CLR 12/02 A3012 RMK AO2 SLP200 T01170022
TAF
KTMB 
5nm W 
212040Z 2121/2218 33014G24KT P6SM FEW050 SCT250 FM220200 34013KT P6SM FEW050 SCT250 FM221600 34014G22KT P6SM FEW050 SCT250
KMIA 
9nm N 
212040Z 2121/2224 32012G22KT P6SM FEW050 SCT250 FM220200 34013KT P6SM FEW050 SCT250 FM221600 34014G22KT P6SM FEW050 SCT250
KHST 
10nm S 
212000Z 2120/2302 32012G18KT 9999 SKC QNH3000INS BECMG 2123/2124 33015G25KT 9999 SKC QNH3009INS BECMG 2220/2221 33015G20KT 9999 BKN025 OVC040 QNH3001INS BECMG 2300/2301 34012KT 9999 FEW010 BKN020 QNH3003INS TX21/2221Z TN05/2212Z
KOPF 
18nm N 
212040Z 2121/2218 31014G24KT P6SM FEW050 SCT250 FM220200 34013KT P6SM FEW050 SCT250 FM221600 34014G22KT P6SM FEW050 SCT250
NOTAMs
Click for the latest NOTAMs
NOTAMs are issued by the DoD/FAA and will open in a separate window not controlled by AirNav.

 

 
 

Would you like to see your business listed on this page?

 If your business provides an interesting product or service to pilots, flight crews, aircraft, or users of the Jackson South Medical Center Heliport, you should consider listing it here.  To start the listing process, click on the button below
 
Add a business
 

Other Pages about Jackson South Medical Center Heliport

Update a link
 
Copyright © AirNav, LLC. All rights reserved. Privacy Policy  Contact